sensor_id;sensor_type;location;lat;lon;timestamp;temperature;humidity
52787;DHT22;38661;53.152;5.846;2022-09-09T00:00:13;14.60;91.40
52787;DHT22;38661;53.152;5.846;2022-09-09T00:02:49;14.70;91.30
52787;DHT22;38661;53.152;5.846;2022-09-09T00:05:45;14.70;91.40
52787;DHT22;38661;53.152;5.846;2022-09-09T00:08:22;14.70;91.50
52787;DHT22;38661;53.152;5.846;2022-09-09T00:11:00;14.70;91.10
52787;DHT22;38661;53.152;5.846;2022-09-09T00:14:07;14.70;91.30
52787;DHT22;38661;53.152;5.846;2022-09-09T00:16:27;14.70;91.10
52787;DHT22;38661;53.152;5.846;2022-09-09T00:18:59;14.60;91.00
52787;DHT22;38661;53.152;5.846;2022-09-09T00:21:35;14.70;91.40
52787;DHT22;38661;53.152;5.846;2022-09-09T00:24:10;14.60;91.40
52787;DHT22;38661;53.152;5.846;2022-09-09T00:26:43;14.60;91.40
52787;DHT22;38661;53.152;5.846;2022-09-09T00:31:59;14.60;91.40
52787;DHT22;38661;53.152;5.846;2022-09-09T00:34:29;14.60;91.50
52787;DHT22;38661;53.152;5.846;2022-09-09T00:36:56;14.60;91.50
52787;DHT22;38661;53.152;5.846;2022-09-09T00:39:32;14.50;91.50
52787;DHT22;38661;53.152;5.846;2022-09-09T00:42:13;14.50;91.50
52787;DHT22;38661;53.152;5.846;2022-09-09T00:47:40;14.50;91.90
52787;DHT22;38661;53.152;5.846;2022-09-09T00:58:31;14.50;91.80
52787;DHT22;38661;53.152;5.846;2022-09-09T01:01:09;14.50;91.80
52787;DHT22;38661;53.152;5.846;2022-09-09T01:03:52;14.50;91.90
52787;DHT22;38661;53.152;5.846;2022-09-09T01:06:29;14.50;92.00
52787;DHT22;38661;53.152;5.846;2022-09-09T01:09:18;14.40;92.20
52787;DHT22;38661;53.152;5.846;2022-09-09T01:22:47;14.50;92.80
52787;DHT22;38661;53.152;5.846;2022-09-09T01:28:22;14.60;92.80
52787;DHT22;38661;53.152;5.846;2022-09-09T01:30:50;14.50;92.90
52787;DHT22;38661;53.152;5.846;2022-09-09T01:33:17;14.60;92.90
52787;DHT22;38661;53.152;5.846;2022-09-09T01:35:53;14.60;92.90
52787;DHT22;38661;53.152;5.846;2022-09-09T01:38:21;14.70;92.70
52787;DHT22;38661;53.152;5.846;2022-09-09T01:40:48;14.70;92.60
52787;DHT22;38661;53.152;5.846;2022-09-09T01:43:14;14.70;92.50
52787;DHT22;38661;53.152;5.846;2022-09-09T01:45:41;14.80;92.50
52787;DHT22;38661;53.152;5.846;2022-09-09T01:48:08;14.70;92.60
52787;DHT22;38661;53.152;5.846;2022-09-09T01:50:33;14.70;92.70
52787;DHT22;38661;53.152;5.846;2022-09-09T01:53:00;14.70;92.50
52787;DHT22;38661;53.152;5.846;2022-09-09T01:55:39;14.70;92.60
52787;DHT22;38661;53.152;5.846;2022-09-09T01:58:32;14.70;92.40
52787;DHT22;38661;53.152;5.846;2022-09-09T02:01:09;14.70;92.30
52787;DHT22;38661;53.152;5.846;2022-09-09T02:03:41;14.80;92.30
52787;DHT22;38661;53.152;5.846;2022-09-09T02:06:26;14.80;92.40
52787;DHT22;38661;53.152;5.846;2022-09-09T02:08:55;14.80;92.60
52787;DHT22;38661;53.152;5.846;2022-09-09T02:11:23;14.70;92.40
52787;DHT22;38661;53.152;5.846;2022-09-09T02:13:53;14.70;92.50
52787;DHT22;38661;53.152;5.846;2022-09-09T02:16:50;14.70;92.50
52787;DHT22;38661;53.152;5.846;2022-09-09T02:19:19;14.70;92.50
52787;DHT22;38661;53.152;5.846;2022-09-09T02:21:52;14.70;92.50
52787;DHT22;38661;53.152;5.846;2022-09-09T02:24:19;14.70;92.70
52787;DHT22;38661;53.152;5.846;2022-09-09T02:26:46;14.70;92.50
52787;DHT22;38661;53.152;5.846;2022-09-09T02:29:16;14.70;92.70
52787;DHT22;38661;53.152;5.846;2022-09-09T02:31:44;14.60;92.60
52787;DHT22;38661;53.152;5.846;2022-09-09T02:34:12;14.70;92.70
52787;DHT22;38661;53.152;5.846;2022-09-09T02:36:40;14.70;92.70
52787;DHT22;38661;53.152;5.846;2022-09-09T02:39:08;14.60;92.70
52787;DHT22;38661;53.152;5.846;2022-09-09T02:41:38;14.60;92.80
52787;DHT22;38661;53.152;5.846;2022-09-09T02:44:15;14.70;92.80
52787;DHT22;38661;53.152;5.846;2022-09-09T02:49:31;14.70;92.80
52787;DHT22;38661;53.152;5.846;2022-09-09T02:52:08;14.70;92.80
52787;DHT22;38661;53.152;5.846;2022-09-09T02:54:37;14.70;92.60
52787;DHT22;38661;53.152;5.846;2022-09-09T02:57:14;14.70;92.60
52787;DHT22;38661;53.152;5.846;2022-09-09T02:59:43;14.70;92.60
52787;DHT22;38661;53.152;5.846;2022-09-09T03:02:09;14.70;92.80
52787;DHT22;38661;53.152;5.846;2022-09-09T03:04:37;14.60;92.90
52787;DHT22;38661;53.152;5.846;2022-09-09T03:07:03;14.70;92.80
52787;DHT22;38661;53.152;5.846;2022-09-09T03:09:30;14.70;92.90
52787;DHT22;38661;53.152;5.846;2022-09-09T03:11:55;14.70;93.00
52787;DHT22;38661;53.152;5.846;2022-09-09T03:14:22;14.60;93.00
52787;DHT22;38661;53.152;5.846;2022-09-09T03:16:54;14.60;92.90
52787;DHT22;38661;53.152;5.846;2022-09-09T03:19:21;14.60;93.00
52787;DHT22;38661;53.152;5.846;2022-09-09T03:21:47;14.60;92.80
52787;DHT22;38661;53.152;5.846;2022-09-09T03:24:13;14.60;93.00
52787;DHT22;38661;53.152;5.846;2022-09-09T03:26:40;14.60;92.90
52787;DHT22;38661;53.152;5.846;2022-09-09T03:29:07;14.60;93.00
52787;DHT22;38661;53.152;5.846;2022-09-09T03:31:33;14.50;92.90
52787;DHT22;38661;53.152;5.846;2022-09-09T03:33:59;14.50;93.40
52787;DHT22;38661;53.152;5.846;2022-09-09T03:36:26;14.60;93.40
52787;DHT22;38661;53.152;5.846;2022-09-09T03:38:53;14.50;93.50
52787;DHT22;38661;53.152;5.846;2022-09-09T03:41:20;14.50;93.40
52787;DHT22;38661;53.152;5.846;2022-09-09T03:43:47;14.50;93.50
52787;DHT22;38661;53.152;5.846;2022-09-09T03:46:13;14.50;93.50
52787;DHT22;38661;53.152;5.846;2022-09-09T03:48:38;14.50;93.80
52787;DHT22;38661;53.152;5.846;2022-09-09T03:51:04;14.50;93.60
52787;DHT22;38661;53.152;5.846;2022-09-09T03:53:30;14.50;93.50
52787;DHT22;38661;53.152;5.846;2022-09-09T03:55:57;14.50;93.20
52787;DHT22;38661;53.152;5.846;2022-09-09T03:58:25;14.50;93.50
52787;DHT22;38661;53.152;5.846;2022-09-09T04:01:12;14.60;93.30
52787;DHT22;38661;53.152;5.846;2022-09-09T04:03:43;14.60;93.60
52787;DHT22;38661;53.152;5.846;2022-09-09T04:06:11;14.60;93.60
52787;DHT22;38661;53.152;5.846;2022-09-09T04:08:39;14.60;93.40
52787;DHT22;38661;53.152;5.846;2022-09-09T04:11:06;14.60;93.40
52787;DHT22;38661;53.152;5.846;2022-09-09T04:13:36;14.60;93.60
52787;DHT22;38661;53.152;5.846;2022-09-09T04:16:06;14.60;93.60
52787;DHT22;38661;53.152;5.846;2022-09-09T04:18:32;14.60;93.70
52787;DHT22;38661;53.152;5.846;2022-09-09T04:20:58;14.60;93.70
52787;DHT22;38661;53.152;5.846;2022-09-09T04:23:25;14.60;93.80
52787;DHT22;38661;53.152;5.846;2022-09-09T04:25:53;14.60;93.50
52787;DHT22;38661;53.152;5.846;2022-09-09T04:28:21;14.60;93.60
52787;DHT22;38661;53.152;5.846;2022-09-09T04:30:47;14.60;94.00
52787;DHT22;38661;53.152;5.846;2022-09-09T04:33:13;14.60;93.90
52787;DHT22;38661;53.152;5.846;2022-09-09T04:35:39;14.60;93.60
52787;DHT22;38661;53.152;5.846;2022-09-09T04:38:08;14.70;93.90
52787;DHT22;38661;53.152;5.846;2022-09-09T04:40:35;14.60;94.00
52787;DHT22;38661;53.152;5.846;2022-09-09T04:43:01;14.60;94.10
52787;DHT22;38661;53.152;5.846;2022-09-09T04:45:28;14.60;94.10
52787;DHT22;38661;53.152;5.846;2022-09-09T04:47:54;14.70;94.20
52787;DHT22;38661;53.152;5.846;2022-09-09T04:50:20;14.60;94.00
52787;DHT22;38661;53.152;5.846;2022-09-09T04:52:46;14.60;94.20
52787;DHT22;38661;53.152;5.846;2022-09-09T04:55:12;14.70;94.00
52787;DHT22;38661;53.152;5.846;2022-09-09T04:57:39;14.70;94.10
52787;DHT22;38661;53.152;5.846;2022-09-09T05:00:05;14.70;94.00
52787;DHT22;38661;53.152;5.846;2022-09-09T05:02:31;14.70;94.00
52787;DHT22;38661;53.152;5.846;2022-09-09T05:04:58;14.70;94.50
52787;DHT22;38661;53.152;5.846;2022-09-09T05:07:24;14.70;94.30
52787;DHT22;38661;53.152;5.846;2022-09-09T05:09:51;14.70;94.20
52787;DHT22;38661;53.152;5.846;2022-09-09T05:12:17;14.70;94.60
52787;DHT22;38661;53.152;5.846;2022-09-09T05:14:43;14.70;94.30
52787;DHT22;38661;53.152;5.846;2022-09-09T05:17:09;14.60;94.40
52787;DHT22;38661;53.152;5.846;2022-09-09T05:19:35;14.70;94.00
52787;DHT22;38661;53.152;5.846;2022-09-09T05:22:01;14.70;94.80
52787;DHT22;38661;53.152;5.846;2022-09-09T05:24:27;14.70;94.70
52787;DHT22;38661;53.152;5.846;2022-09-09T05:26:52;14.70;94.60
52787;DHT22;38661;53.152;5.846;2022-09-09T05:29:18;14.70;94.90
52787;DHT22;38661;53.152;5.846;2022-09-09T05:31:46;14.70;94.40
52787;DHT22;38661;53.152;5.846;2022-09-09T05:34:12;14.70;94.20
52787;DHT22;38661;53.152;5.846;2022-09-09T05:36:38;14.70;94.40
52787;DHT22;38661;53.152;5.846;2022-09-09T05:39:04;14.70;94.70
52787;DHT22;38661;53.152;5.846;2022-09-09T05:41:29;14.60;94.50
52787;DHT22;38661;53.152;5.846;2022-09-09T05:43:57;14.70;94.40
52787;DHT22;38661;53.152;5.846;2022-09-09T05:46:25;14.70;94.60
52787;DHT22;38661;53.152;5.846;2022-09-09T05:48:52;14.70;94.60
52787;DHT22;38661;53.152;5.846;2022-09-09T05:51:20;14.70;94.50
52787;DHT22;38661;53.152;5.846;2022-09-09T05:53:47;14.70;94.50
52787;DHT22;38661;53.152;5.846;2022-09-09T05:56:15;14.60;94.60
52787;DHT22;38661;53.152;5.846;2022-09-09T05:58:45;14.60;94.70
52787;DHT22;38661;53.152;5.846;2022-09-09T06:01:15;14.60;94.60
52787;DHT22;38661;53.152;5.846;2022-09-09T06:03:42;14.60;94.70
52787;DHT22;38661;53.152;5.846;2022-09-09T06:06:13;14.70;94.80
52787;DHT22;38661;53.152;5.846;2022-09-09T06:08:42;14.70;94.70
52787;DHT22;38661;53.152;5.846;2022-09-09T06:11:10;14.70;94.80
52787;DHT22;38661;53.152;5.846;2022-09-09T06:13:36;14.70;94.70
52787;DHT22;38661;53.152;5.846;2022-09-09T06:16:06;14.80;94.70
52787;DHT22;38661;53.152;5.846;2022-09-09T06:18:33;14.80;94.60
52787;DHT22;38661;53.152;5.846;2022-09-09T06:21:04;14.80;94.50
52787;DHT22;38661;53.152;5.846;2022-09-09T06:23:30;14.90;94.60
52787;DHT22;38661;53.152;5.846;2022-09-09T06:26:09;14.90;94.60
52787;DHT22;38661;53.152;5.846;2022-09-09T06:28:36;14.90;94.60
52787;DHT22;38661;53.152;5.846;2022-09-09T06:31:05;14.90;94.60
52787;DHT22;38661;53.152;5.846;2022-09-09T06:33:32;15.00;94.40
52787;DHT22;38661;53.152;5.846;2022-09-09T06:36:00;15.00;94.60
52787;DHT22;38661;53.152;5.846;2022-09-09T06:38:27;15.00;94.50
52787;DHT22;38661;53.152;5.846;2022-09-09T06:40:53;15.00;94.40
52787;DHT22;38661;53.152;5.846;2022-09-09T06:43:27;15.00;94.20
52787;DHT22;38661;53.152;5.846;2022-09-09T06:46:18;14.90;94.40
52787;DHT22;38661;53.152;5.846;2022-09-09T06:48:45;14.90;94.50
52787;DHT22;38661;53.152;5.846;2022-09-09T06:51:16;14.80;94.50
52787;DHT22;38661;53.152;5.846;2022-09-09T06:53:44;14.90;94.70
52787;DHT22;38661;53.152;5.846;2022-09-09T06:58:40;14.90;94.60
52787;DHT22;38661;53.152;5.846;2022-09-09T07:01:14;14.90;94.40
52787;DHT22;38661;53.152;5.846;2022-09-09T07:03:41;14.90;94.30
52787;DHT22;38661;53.152;5.846;2022-09-09T07:06:09;14.90;94.40
52787;DHT22;38661;53.152;5.846;2022-09-09T07:08:39;14.90;94.20
52787;DHT22;38661;53.152;5.846;2022-09-09T07:11:06;14.90;94.30
52787;DHT22;38661;53.152;5.846;2022-09-09T07:13:32;14.90;94.30
52787;DHT22;38661;53.152;5.846;2022-09-09T07:16:11;14.90;94.30
52787;DHT22;38661;53.152;5.846;2022-09-09T07:18:37;15.00;94.20
52787;DHT22;38661;53.152;5.846;2022-09-09T07:21:03;15.00;94.20
52787;DHT22;38661;53.152;5.846;2022-09-09T07:23:30;15.00;94.20
52787;DHT22;38661;53.152;5.846;2022-09-09T07:25:59;15.10;94.20
52787;DHT22;38661;53.152;5.846;2022-09-09T07:28:25;15.10;94.00
52787;DHT22;38661;53.152;5.846;2022-09-09T07:31:00;15.20;94.00
52787;DHT22;38661;53.152;5.846;2022-09-09T07:33:30;15.30;94.10
52787;DHT22;38661;53.152;5.846;2022-09-09T07:38:44;15.50;93.60
52787;DHT22;38661;53.152;5.846;2022-09-09T07:41:13;15.50;93.20
52787;DHT22;38661;53.152;5.846;2022-09-09T07:43:41;15.60;93.10
52787;DHT22;38661;53.152;5.846;2022-09-09T07:46:08;15.50;93.20
52787;DHT22;38661;53.152;5.846;2022-09-09T07:48:34;15.60;93.00
52787;DHT22;38661;53.152;5.846;2022-09-09T07:51:15;15.60;92.70
52787;DHT22;38661;53.152;5.846;2022-09-09T07:53:46;15.70;92.90
52787;DHT22;38661;53.152;5.846;2022-09-09T07:56:16;15.70;92.60
52787;DHT22;38661;53.152;5.846;2022-09-09T07:58:45;15.90;92.60
52787;DHT22;38661;53.152;5.846;2022-09-09T08:01:21;15.90;92.50
52787;DHT22;38661;53.152;5.846;2022-09-09T08:03:59;15.90;92.20
52787;DHT22;38661;53.152;5.846;2022-09-09T08:06:27;16.00;92.20
52787;DHT22;38661;53.152;5.846;2022-09-09T08:08:54;16.00;92.00
52787;DHT22;38661;53.152;5.846;2022-09-09T08:11:22;16.10;91.90
52787;DHT22;38661;53.152;5.846;2022-09-09T08:13:49;16.20;91.70
52787;DHT22;38661;53.152;5.846;2022-09-09T08:16:20;16.30;91.80
52787;DHT22;38661;53.152;5.846;2022-09-09T08:18:48;16.50;91.80
52787;DHT22;38661;53.152;5.846;2022-09-09T08:21:23;16.50;90.30
52787;DHT22;38661;53.152;5.846;2022-09-09T08:23:51;16.60;90.90
52787;DHT22;38661;53.152;5.846;2022-09-09T08:26:38;16.70;91.10
52787;DHT22;38661;53.152;5.846;2022-09-09T08:29:06;16.70;90.40
52787;DHT22;38661;53.152;5.846;2022-09-09T08:31:40;16.90;90.30
52787;DHT22;38661;53.152;5.846;2022-09-09T08:34:08;17.00;90.40
52787;DHT22;38661;53.152;5.846;2022-09-09T08:36:37;17.10;90.00
52787;DHT22;38661;53.152;5.846;2022-09-09T08:39:05;17.10;88.70
52787;DHT22;38661;53.152;5.846;2022-09-09T08:50:08;17.30;88.90
52787;DHT22;38661;53.152;5.846;2022-09-09T08:55:39;17.50;88.60
52787;DHT22;38661;53.152;5.846;2022-09-09T09:04:02;17.50;87.10
52787;DHT22;38661;53.152;5.846;2022-09-09T09:11:48;17.70;87.10
52787;DHT22;38661;53.152;5.846;2022-09-09T09:14:18;17.70;86.80
52787;DHT22;38661;53.152;5.846;2022-09-09T09:16:57;17.70;86.70
52787;DHT22;38661;53.152;5.846;2022-09-09T09:19:23;17.80;86.70
52787;DHT22;38661;53.152;5.846;2022-09-09T09:27:31;17.70;86.40
52787;DHT22;38661;53.152;5.846;2022-09-09T09:30:00;17.60;85.10
52787;DHT22;38661;53.152;5.846;2022-09-09T09:32:30;17.60;86.10
52787;DHT22;38661;53.152;5.846;2022-09-09T09:34:57;17.50;86.00
52787;DHT22;38661;53.152;5.846;2022-09-09T09:37:30;17.60;86.10
52787;DHT22;38661;53.152;5.846;2022-09-09T09:40:07;17.50;86.10
52787;DHT22;38661;53.152;5.846;2022-09-09T09:42:33;17.50;86.00
52787;DHT22;38661;53.152;5.846;2022-09-09T09:45:19;17.50;86.00
52787;DHT22;38661;53.152;5.846;2022-09-09T09:47:46;17.50;86.20
52787;DHT22;38661;53.152;5.846;2022-09-09T09:50:19;17.60;86.50
52787;DHT22;38661;53.152;5.846;2022-09-09T09:52:57;17.70;86.20
52787;DHT22;38661;53.152;5.846;2022-09-09T09:55:24;17.80;85.60
52787;DHT22;38661;53.152;5.846;2022-09-09T09:57:50;17.70;84.40
52787;DHT22;38661;53.152;5.846;2022-09-09T10:00:19;17.80;84.80
52787;DHT22;38661;53.152;5.846;2022-09-09T10:02:47;17.80;84.30
52787;DHT22;38661;53.152;5.846;2022-09-09T10:05:21;17.90;84.40
52787;DHT22;38661;53.152;5.846;2022-09-09T10:08:08;18.00;84.40
52787;DHT22;38661;53.152;5.846;2022-09-09T10:10:37;18.10;83.40
52787;DHT22;38661;53.152;5.846;2022-09-09T10:19:13;18.40;80.40
52787;DHT22;38661;53.152;5.846;2022-09-09T10:30:30;19.00;78.10
52787;DHT22;38661;53.152;5.846;2022-09-09T10:33:10;18.90;78.30
52787;DHT22;38661;53.152;5.846;2022-09-09T10:36:21;18.70;77.30
52787;DHT22;38661;53.152;5.846;2022-09-09T10:38:52;18.90;78.70
52787;DHT22;38661;53.152;5.846;2022-09-09T10:41:32;18.90;78.40
52787;DHT22;38661;53.152;5.846;2022-09-09T10:47:07;19.30;78.20
52787;DHT22;38661;53.152;5.846;2022-09-09T10:55:19;20.10;74.20
52787;DHT22;38661;53.152;5.846;2022-09-09T10:57:48;20.20;74.00
52787;DHT22;38661;53.152;5.846;2022-09-09T11:00:39;20.30;73.70
52787;DHT22;38661;53.152;5.846;2022-09-09T11:03:06;20.20;72.90
52787;DHT22;38661;53.152;5.846;2022-09-09T11:11:25;19.90;74.40
52787;DHT22;38661;53.152;5.846;2022-09-09T11:16:49;19.90;74.80
52787;DHT22;38661;53.152;5.846;2022-09-09T11:19:26;19.90;74.20
52787;DHT22;38661;53.152;5.846;2022-09-09T11:21:53;19.70;73.70
52787;DHT22;38661;53.152;5.846;2022-09-09T11:24:36;19.70;74.80
52787;DHT22;38661;53.152;5.846;2022-09-09T11:27:30;19.70;75.50
52787;DHT22;38661;53.152;5.846;2022-09-09T11:38:37;19.90;75.30
52787;DHT22;38661;53.152;5.846;2022-09-09T11:41:07;20.00;75.00
52787;DHT22;38661;53.152;5.846;2022-09-09T11:44:08;20.10;74.60
52787;DHT22;38661;53.152;5.846;2022-09-09T11:46:38;20.20;72.80
52787;DHT22;38661;53.152;5.846;2022-09-09T11:49:06;20.00;73.30
52787;DHT22;38661;53.152;5.846;2022-09-09T11:51:33;20.00;74.00
52787;DHT22;38661;53.152;5.846;2022-09-09T11:54:04;19.80;73.20
52787;DHT22;38661;53.152;5.846;2022-09-09T11:56:48;19.70;74.30
52787;DHT22;38661;53.152;5.846;2022-09-09T11:59:33;19.80;74.80
52787;DHT22;38661;53.152;5.846;2022-09-09T12:02:17;20.10;74.40
52787;DHT22;38661;53.152;5.846;2022-09-09T12:05:07;20.20;74.00
52787;DHT22;38661;53.152;5.846;2022-09-09T12:07:56;20.00;74.50
52787;DHT22;38661;53.152;5.846;2022-09-09T12:10:25;19.70;75.20
52787;DHT22;38661;53.152;5.846;2022-09-09T12:12:51;19.50;76.00
52787;DHT22;38661;53.152;5.846;2022-09-09T12:15:22;19.50;76.30
52787;DHT22;38661;53.152;5.846;2022-09-09T12:17:50;19.30;77.00
52787;DHT22;38661;53.152;5.846;2022-09-09T12:28:19;19.40;77.20
52787;DHT22;38661;53.152;5.846;2022-09-09T12:30:58;19.50;77.10
52787;DHT22;38661;53.152;5.846;2022-09-09T12:33:37;19.50;76.90
52787;DHT22;38661;53.152;5.846;2022-09-09T12:36:11;19.50;76.10
52787;DHT22;38661;53.152;5.846;2022-09-09T12:38:40;19.40;76.60
52787;DHT22;38661;53.152;5.846;2022-09-09T12:41:15;19.30;77.10
52787;DHT22;38661;53.152;5.846;2022-09-09T12:43:45;19.30;77.40
52787;DHT22;38661;53.152;5.846;2022-09-09T12:46:23;19.40;77.60
52787;DHT22;38661;53.152;5.846;2022-09-09T12:48:53;19.80;77.50
52787;DHT22;38661;53.152;5.846;2022-09-09T12:51:39;20.30;76.80
52787;DHT22;38661;53.152;5.846;2022-09-09T12:54:13;20.50;74.90
52787;DHT22;38661;53.152;5.846;2022-09-09T12:56:46;20.50;74.80
52787;DHT22;38661;53.152;5.846;2022-09-09T12:59:24;20.30;75.60
52787;DHT22;38661;53.152;5.846;2022-09-09T13:01:58;20.40;75.40
52787;DHT22;38661;53.152;5.846;2022-09-09T13:04:24;20.60;74.60
52787;DHT22;38661;53.152;5.846;2022-09-09T13:06:49;20.50;74.20
52787;DHT22;38661;53.152;5.846;2022-09-09T13:09:17;20.40;74.10
52787;DHT22;38661;53.152;5.846;2022-09-09T13:11:47;20.50;74.50
52787;DHT22;38661;53.152;5.846;2022-09-09T13:14:35;20.50;74.90
52787;DHT22;38661;53.152;5.846;2022-09-09T13:17:04;20.30;74.70
52787;DHT22;38661;53.152;5.846;2022-09-09T13:19:36;20.40;72.50
52787;DHT22;38661;53.152;5.846;2022-09-09T13:22:31;20.50;72.60
52787;DHT22;38661;53.152;5.846;2022-09-09T13:25:18;20.60;71.20
52787;DHT22;38661;53.152;5.846;2022-09-09T13:28:05;20.90;70.90
52787;DHT22;38661;53.152;5.846;2022-09-09T13:30:36;20.90;70.50
52787;DHT22;38661;53.152;5.846;2022-09-09T13:33:23;20.70;71.80
52787;DHT22;38661;53.152;5.846;2022-09-09T13:35:56;20.60;72.10
52787;DHT22;38661;53.152;5.846;2022-09-09T13:38:22;20.40;73.30
52787;DHT22;38661;53.152;5.846;2022-09-09T13:41:09;20.20;75.60
52787;DHT22;38661;53.152;5.846;2022-09-09T13:43:44;19.90;77.70
52787;DHT22;38661;53.152;5.846;2022-09-09T13:46:40;19.20;80.40
52787;DHT22;38661;53.152;5.846;2022-09-09T13:51:37;18.90;80.90
52787;DHT22;38661;53.152;5.846;2022-09-09T13:54:05;19.00;81.20
52787;DHT22;38661;53.152;5.846;2022-09-09T13:56:33;19.10;81.60
52787;DHT22;38661;53.152;5.846;2022-09-09T13:58:59;19.40;82.50
52787;DHT22;38661;53.152;5.846;2022-09-09T14:01:24;19.70;80.20
52787;DHT22;38661;53.152;5.846;2022-09-09T14:03:50;20.10;80.20
52787;DHT22;38661;53.152;5.846;2022-09-09T14:06:19;20.50;79.10
52787;DHT22;38661;53.152;5.846;2022-09-09T14:08:48;20.70;76.80
52787;DHT22;38661;53.152;5.846;2022-09-09T14:11:15;21.00;76.20
52787;DHT22;38661;53.152;5.846;2022-09-09T14:13:41;21.20;75.90
52787;DHT22;38661;53.152;5.846;2022-09-09T14:16:07;21.10;76.00
52787;DHT22;38661;53.152;5.846;2022-09-09T14:18:33;21.20;75.40
52787;DHT22;38661;53.152;5.846;2022-09-09T14:20:59;21.30;74.60
52787;DHT22;38661;53.152;5.846;2022-09-09T14:23:25;21.30;75.30
52787;DHT22;38661;53.152;5.846;2022-09-09T14:25:51;21.20;75.40
52787;DHT22;38661;53.152;5.846;2022-09-09T14:28:17;21.00;74.60
52787;DHT22;38661;53.152;5.846;2022-09-09T14:30:43;20.90;75.30
52787;DHT22;38661;53.152;5.846;2022-09-09T14:33:14;20.90;75.70
52787;DHT22;38661;53.152;5.846;2022-09-09T14:35:41;20.60;76.20
52787;DHT22;38661;53.152;5.846;2022-09-09T14:38:08;20.40;76.30
52787;DHT22;38661;53.152;5.846;2022-09-09T14:40:35;20.30;76.10
52787;DHT22;38661;53.152;5.846;2022-09-09T14:43:02;20.30;75.60
52787;DHT22;38661;53.152;5.846;2022-09-09T14:45:28;20.20;74.90
52787;DHT22;38661;53.152;5.846;2022-09-09T14:47:54;19.90;76.40
52787;DHT22;38661;53.152;5.846;2022-09-09T14:50:21;19.80;76.40
52787;DHT22;38661;53.152;5.846;2022-09-09T14:52:47;19.60;76.80
52787;DHT22;38661;53.152;5.846;2022-09-09T14:55:13;19.50;76.80
52787;DHT22;38661;53.152;5.846;2022-09-09T14:57:40;19.40;77.10
52787;DHT22;38661;53.152;5.846;2022-09-09T15:00:07;19.30;77.70
52787;DHT22;38661;53.152;5.846;2022-09-09T15:02:34;19.20;77.90
52787;DHT22;38661;53.152;5.846;2022-09-09T15:04:59;19.20;77.90
52787;DHT22;38661;53.152;5.846;2022-09-09T15:07:25;18.90;80.50
52787;DHT22;38661;53.152;5.846;2022-09-09T15:09:52;18.70;81.50
52787;DHT22;38661;53.152;5.846;2022-09-09T15:12:18;18.50;83.00
52787;DHT22;38661;53.152;5.846;2022-09-09T15:14:45;18.20;84.10
52787;DHT22;38661;53.152;5.846;2022-09-09T15:17:10;17.80;86.50
52787;DHT22;38661;53.152;5.846;2022-09-09T15:19:36;17.60;86.90
52787;DHT22;38661;53.152;5.846;2022-09-09T15:22:06;17.40;86.90
52787;DHT22;38661;53.152;5.846;2022-09-09T15:24:33;17.30;88.30
52787;DHT22;38661;53.152;5.846;2022-09-09T15:26:59;17.20;87.50
52787;DHT22;38661;53.152;5.846;2022-09-09T15:29:25;17.10;88.10
52787;DHT22;38661;53.152;5.846;2022-09-09T15:31:51;17.00;89.80
52787;DHT22;38661;53.152;5.846;2022-09-09T15:34:18;17.00;89.30
52787;DHT22;38661;53.152;5.846;2022-09-09T15:36:45;16.90;90.10
52787;DHT22;38661;53.152;5.846;2022-09-09T15:39:17;16.90;90.30
52787;DHT22;38661;53.152;5.846;2022-09-09T15:41:47;17.00;90.60
52787;DHT22;38661;53.152;5.846;2022-09-09T15:44:14;17.00;89.10
52787;DHT22;38661;53.152;5.846;2022-09-09T15:46:51;17.00;88.90
52787;DHT22;38661;53.152;5.846;2022-09-09T15:49:24;17.10;89.70
52787;DHT22;38661;53.152;5.846;2022-09-09T15:51:56;17.10;89.30
52787;DHT22;38661;53.152;5.846;2022-09-09T15:54:23;17.30;88.90
52787;DHT22;38661;53.152;5.846;2022-09-09T15:56:55;17.40;89.30
52787;DHT22;38661;53.152;5.846;2022-09-09T15:59:25;17.40;89.80
52787;DHT22;38661;53.152;5.846;2022-09-09T16:01:53;17.50;89.90
52787;DHT22;38661;53.152;5.846;2022-09-09T16:04:21;17.50;89.90
52787;DHT22;38661;53.152;5.846;2022-09-09T16:06:51;17.50;89.60
52787;DHT22;38661;53.152;5.846;2022-09-09T16:09:18;17.60;89.30
52787;DHT22;38661;53.152;5.846;2022-09-09T16:11:43;17.60;89.30
52787;DHT22;38661;53.152;5.846;2022-09-09T16:14:09;17.60;89.60
52787;DHT22;38661;53.152;5.846;2022-09-09T16:16:36;17.70;89.50
52787;DHT22;38661;53.152;5.846;2022-09-09T16:19:07;17.70;89.50
52787;DHT22;38661;53.152;5.846;2022-09-09T16:21:43;17.70;89.30
52787;DHT22;38661;53.152;5.846;2022-09-09T16:24:12;17.80;89.20
52787;DHT22;38661;53.152;5.846;2022-09-09T16:26:40;17.70;89.20
52787;DHT22;38661;53.152;5.846;2022-09-09T16:29:08;17.80;89.00
52787;DHT22;38661;53.152;5.846;2022-09-09T16:31:34;17.80;89.10
52787;DHT22;38661;53.152;5.846;2022-09-09T16:34:00;17.70;89.20
52787;DHT22;38661;53.152;5.846;2022-09-09T16:36:27;17.80;89.20
52787;DHT22;38661;53.152;5.846;2022-09-09T16:38:58;17.70;89.30
52787;DHT22;38661;53.152;5.846;2022-09-09T16:41:26;17.70;89.20
52787;DHT22;38661;53.152;5.846;2022-09-09T16:43:56;17.70;89.40
52787;DHT22;38661;53.152;5.846;2022-09-09T16:46:23;17.70;89.50
52787;DHT22;38661;53.152;5.846;2022-09-09T16:48:50;17.60;90.00
52787;DHT22;38661;53.152;5.846;2022-09-09T16:51:24;17.60;89.90
52787;DHT22;38661;53.152;5.846;2022-09-09T16:53:51;17.70;89.80
52787;DHT22;38661;53.152;5.846;2022-09-09T16:56:19;17.70;89.70
52787;DHT22;38661;53.152;5.846;2022-09-09T16:58:56;17.70;89.90
52787;DHT22;38661;53.152;5.846;2022-09-09T17:01:23;17.70;90.10
52787;DHT22;38661;53.152;5.846;2022-09-09T17:03:55;17.70;89.80
52787;DHT22;38661;53.152;5.846;2022-09-09T17:06:22;17.70;89.80
52787;DHT22;38661;53.152;5.846;2022-09-09T17:08:53;17.70;89.70
52787;DHT22;38661;53.152;5.846;2022-09-09T17:11:19;17.70;89.50
52787;DHT22;38661;53.152;5.846;2022-09-09T17:13:46;17.70;89.50
52787;DHT22;38661;53.152;5.846;2022-09-09T17:16:13;17.70;89.20
52787;DHT22;38661;53.152;5.846;2022-09-09T17:18:39;17.60;87.90
52787;DHT22;38661;53.152;5.846;2022-09-09T17:21:12;17.50;87.80
52787;DHT22;38661;53.152;5.846;2022-09-09T17:23:40;17.40;87.90
52787;DHT22;38661;53.152;5.846;2022-09-09T17:26:07;17.40;88.30
52787;DHT22;38661;53.152;5.846;2022-09-09T17:28:36;17.40;88.40
52787;DHT22;38661;53.152;5.846;2022-09-09T17:31:05;17.40;88.40
52787;DHT22;38661;53.152;5.846;2022-09-09T17:33:33;17.40;89.60
52787;DHT22;38661;53.152;5.846;2022-09-09T17:36:02;17.30;89.20
52787;DHT22;38661;53.152;5.846;2022-09-09T17:38:28;17.40;89.40
52787;DHT22;38661;53.152;5.846;2022-09-09T17:41:03;17.30;89.70
52787;DHT22;38661;53.152;5.846;2022-09-09T17:43:29;17.30;90.20
52787;DHT22;38661;53.152;5.846;2022-09-09T17:46:18;17.30;90.10